Alabama, New York
Current Conditions -  °F | °C
As of 2:54 PM on Wednesday 28 Jan 2015 (Local Time) from KBUF Reporting Station
Few Clouds Few Clouds  
Wind Chill:   Ceiling: Unl
Heat Index: 20°   Visibility: 10mi
Dew Point: 11°   Wind: 10mph
Humidity: 68%   Direction: 230°SW
Pressure: 30.28"   Gusts: NA
Location:  43.1°N, 78.39°W
Report Text: KBUF 281954Z 23009KT 10SM FEW250 M07/M12 A3028 RMK AO2 SLP270 T10671117
Loading
Personal Weather Stations






























Interactive Weather Map New forecast layout! Learn more

10-Day Weather Forecast

Advertisements
Track Severe Weather on mobile